sensor_id;sensor_type;location;lat;lon;timestamp;temperature;humidity
8715;DHT22;4394;51.208;8.904;2024-02-14T00:01:04;7.20;99.90
8715;DHT22;4394;51.208;8.904;2024-02-14T00:03:53;7.30;99.90
8715;DHT22;4394;51.208;8.904;2024-02-14T00:06:41;7.30;99.90
8715;DHT22;4394;51.208;8.904;2024-02-14T00:09:30;7.30;99.90
8715;DHT22;4394;51.208;8.904;2024-02-14T00:12:19;7.30;99.90
8715;DHT22;4394;51.208;8.904;2024-02-14T00:15:08;7.30;99.90
8715;DHT22;4394;51.208;8.904;2024-02-14T00:17:57;7.30;99.90
8715;DHT22;4394;51.208;8.904;2024-02-14T00:20:45;7.30;99.90
8715;DHT22;4394;51.208;8.904;2024-02-14T00:23:33;7.30;99.90
8715;DHT22;4394;51.208;8.904;2024-02-14T00:26:21;7.30;99.90
8715;DHT22;4394;51.208;8.904;2024-02-14T00:29:10;7.30;99.90
8715;DHT22;4394;51.208;8.904;2024-02-14T00:31:58;7.30;99.90
8715;DHT22;4394;51.208;8.904;2024-02-14T00:34:46;7.30;99.90
8715;DHT22;4394;51.208;8.904;2024-02-14T00:37:37;7.40;99.90
8715;DHT22;4394;51.208;8.904;2024-02-14T00:40:25;7.30;99.90
8715;DHT22;4394;51.208;8.904;2024-02-14T00:43:13;7.40;99.90
8715;DHT22;4394;51.208;8.904;2024-02-14T00:46:02;7.30;99.90
8715;DHT22;4394;51.208;8.904;2024-02-14T00:48:51;7.30;99.90
8715;DHT22;4394;51.208;8.904;2024-02-14T00:51:41;7.30;99.90
8715;DHT22;4394;51.208;8.904;2024-02-14T00:54:29;7.40;99.90
8715;DHT22;4394;51.208;8.904;2024-02-14T00:57:17;7.40;99.90
8715;DHT22;4394;51.208;8.904;2024-02-14T01:00:07;7.40;99.90
8715;DHT22;4394;51.208;8.904;2024-02-14T01:02:57;7.40;99.90
8715;DHT22;4394;51.208;8.904;2024-02-14T01:05:45;7.30;99.90
8715;DHT22;4394;51.208;8.904;2024-02-14T01:08:35;7.30;99.90
8715;DHT22;4394;51.208;8.904;2024-02-14T01:11:23;7.40;99.90
8715;DHT22;4394;51.208;8.904;2024-02-14T01:14:11;7.30;99.90
8715;DHT22;4394;51.208;8.904;2024-02-14T01:17:00;7.40;99.90
8715;DHT22;4394;51.208;8.904;2024-02-14T01:19:51;7.40;99.90
8715;DHT22;4394;51.208;8.904;2024-02-14T01:22:40;7.40;99.90
8715;DHT22;4394;51.208;8.904;2024-02-14T01:25:28;7.40;99.90
8715;DHT22;4394;51.208;8.904;2024-02-14T01:28:16;7.40;99.90
8715;DHT22;4394;51.208;8.904;2024-02-14T01:31:05;7.40;99.90
8715;DHT22;4394;51.208;8.904;2024-02-14T01:33:53;7.40;99.90
8715;DHT22;4394;51.208;8.904;2024-02-14T01:36:43;7.40;99.90
8715;DHT22;4394;51.208;8.904;2024-02-14T01:39:31;7.40;99.90
8715;DHT22;4394;51.208;8.904;2024-02-14T01:42:19;7.40;99.90
8715;DHT22;4394;51.208;8.904;2024-02-14T01:45:08;7.40;99.90
8715;DHT22;4394;51.208;8.904;2024-02-14T01:47:56;7.40;99.90
8715;DHT22;4394;51.208;8.904;2024-02-14T01:50:44;7.30;99.90
8715;DHT22;4394;51.208;8.904;2024-02-14T01:53:34;7.30;99.90
8715;DHT22;4394;51.208;8.904;2024-02-14T01:56:24;7.40;99.90
8715;DHT22;4394;51.208;8.904;2024-02-14T01:59:14;7.30;99.90
8715;DHT22;4394;51.208;8.904;2024-02-14T02:02:04;7.30;99.90
8715;DHT22;4394;51.208;8.904;2024-02-14T02:04:54;7.30;99.90
8715;DHT22;4394;51.208;8.904;2024-02-14T02:07:42;7.30;99.90
8715;DHT22;4394;51.208;8.904;2024-02-14T02:10:33;7.30;99.90
8715;DHT22;4394;51.208;8.904;2024-02-14T02:13:22;7.30;99.90
8715;DHT22;4394;51.208;8.904;2024-02-14T02:16:10;7.30;99.90
8715;DHT22;4394;51.208;8.904;2024-02-14T02:18:59;7.30;99.90
8715;DHT22;4394;51.208;8.904;2024-02-14T02:21:47;7.30;99.90
8715;DHT22;4394;51.208;8.904;2024-02-14T02:24:37;7.30;99.90
8715;DHT22;4394;51.208;8.904;2024-02-14T02:27:25;7.30;99.90
8715;DHT22;4394;51.208;8.904;2024-02-14T02:30:13;7.30;99.90
8715;DHT22;4394;51.208;8.904;2024-02-14T02:33:01;7.30;99.90
8715;DHT22;4394;51.208;8.904;2024-02-14T02:35:51;7.30;99.90
8715;DHT22;4394;51.208;8.904;2024-02-14T02:38:39;7.30;99.90
8715;DHT22;4394;51.208;8.904;2024-02-14T02:41:28;7.30;99.90
8715;DHT22;4394;51.208;8.904;2024-02-14T02:44:16;7.30;99.90
8715;DHT22;4394;51.208;8.904;2024-02-14T02:47:04;7.30;99.90
8715;DHT22;4394;51.208;8.904;2024-02-14T02:49:52;7.40;99.90
8715;DHT22;4394;51.208;8.904;2024-02-14T02:52:40;7.40;99.90
8715;DHT22;4394;51.208;8.904;2024-02-14T02:55:29;7.40;99.90
8715;DHT22;4394;51.208;8.904;2024-02-14T02:58:18;7.40;99.90
8715;DHT22;4394;51.208;8.904;2024-02-14T03:01:08;7.30;99.90
8715;DHT22;4394;51.208;8.904;2024-02-14T03:03:56;7.40;99.90
8715;DHT22;4394;51.208;8.904;2024-02-14T03:06:45;7.40;99.90
8715;DHT22;4394;51.208;8.904;2024-02-14T03:09:33;7.40;99.90
8715;DHT22;4394;51.208;8.904;2024-02-14T03:12:22;7.40;99.90
8715;DHT22;4394;51.208;8.904;2024-02-14T03:15:11;7.40;99.90
8715;DHT22;4394;51.208;8.904;2024-02-14T03:18:00;7.50;99.90
8715;DHT22;4394;51.208;8.904;2024-02-14T03:20:48;7.40;99.90
8715;DHT22;4394;51.208;8.904;2024-02-14T03:23:37;7.40;99.90
8715;DHT22;4394;51.208;8.904;2024-02-14T03:26:26;7.50;99.90
8715;DHT22;4394;51.208;8.904;2024-02-14T03:29:14;7.40;99.90
8715;DHT22;4394;51.208;8.904;2024-02-14T03:32:05;7.50;99.90
8715;DHT22;4394;51.208;8.904;2024-02-14T03:34:55;7.40;99.90
8715;DHT22;4394;51.208;8.904;2024-02-14T03:37:45;7.40;99.90
8715;DHT22;4394;51.208;8.904;2024-02-14T03:40:35;7.40;99.90
8715;DHT22;4394;51.208;8.904;2024-02-14T03:43:25;7.40;99.90
8715;DHT22;4394;51.208;8.904;2024-02-14T03:46:13;7.40;99.90
8715;DHT22;4394;51.208;8.904;2024-02-14T03:49:02;7.40;99.90
8715;DHT22;4394;51.208;8.904;2024-02-14T03:51:50;7.40;99.90
8715;DHT22;4394;51.208;8.904;2024-02-14T03:54:41;7.40;99.90
8715;DHT22;4394;51.208;8.904;2024-02-14T03:57:29;7.40;99.90
8715;DHT22;4394;51.208;8.904;2024-02-14T04:00:18;7.40;99.90
8715;DHT22;4394;51.208;8.904;2024-02-14T04:03:11;7.40;99.90
8715;DHT22;4394;51.208;8.904;2024-02-14T04:06:01;7.40;99.90
8715;DHT22;4394;51.208;8.904;2024-02-14T04:08:50;7.40;99.90
8715;DHT22;4394;51.208;8.904;2024-02-14T04:11:38;7.40;99.90
8715;DHT22;4394;51.208;8.904;2024-02-14T04:14:26;7.30;99.90
8715;DHT22;4394;51.208;8.904;2024-02-14T04:17:14;7.40;99.90
8715;DHT22;4394;51.208;8.904;2024-02-14T04:20:03;7.40;99.90
8715;DHT22;4394;51.208;8.904;2024-02-14T04:22:53;7.40;99.90
8715;DHT22;4394;51.208;8.904;2024-02-14T04:25:41;7.40;99.90
8715;DHT22;4394;51.208;8.904;2024-02-14T04:28:29;7.30;99.90
8715;DHT22;4394;51.208;8.904;2024-02-14T04:31:17;7.30;99.90
8715;DHT22;4394;51.208;8.904;2024-02-14T04:34:05;7.30;99.90
8715;DHT22;4394;51.208;8.904;2024-02-14T04:36:55;7.30;99.90
8715;DHT22;4394;51.208;8.904;2024-02-14T04:39:44;7.30;99.90
8715;DHT22;4394;51.208;8.904;2024-02-14T04:42:32;7.30;99.90
8715;DHT22;4394;51.208;8.904;2024-02-14T04:45:21;7.40;99.90
8715;DHT22;4394;51.208;8.904;2024-02-14T04:48:09;7.40;99.90
8715;DHT22;4394;51.208;8.904;2024-02-14T04:50:57;7.40;99.90
8715;DHT22;4394;51.208;8.904;2024-02-14T04:53:47;7.40;99.90
8715;DHT22;4394;51.208;8.904;2024-02-14T04:56:36;7.40;99.90
8715;DHT22;4394;51.208;8.904;2024-02-14T04:59:24;7.40;99.90
8715;DHT22;4394;51.208;8.904;2024-02-14T05:02:12;7.40;99.90
8715;DHT22;4394;51.208;8.904;2024-02-14T05:05:01;7.40;99.90
8715;DHT22;4394;51.208;8.904;2024-02-14T05:07:49;7.40;99.90
8715;DHT22;4394;51.208;8.904;2024-02-14T05:10:37;7.40;99.90
8715;DHT22;4394;51.208;8.904;2024-02-14T05:13:27;7.40;99.90
8715;DHT22;4394;51.208;8.904;2024-02-14T05:16:18;7.40;99.90
8715;DHT22;4394;51.208;8.904;2024-02-14T05:19:06;7.40;99.90
8715;DHT22;4394;51.208;8.904;2024-02-14T05:21:54;7.40;99.90
8715;DHT22;4394;51.208;8.904;2024-02-14T05:24:42;7.30;99.90
8715;DHT22;4394;51.208;8.904;2024-02-14T05:27:30;7.30;99.90
8715;DHT22;4394;51.208;8.904;2024-02-14T05:30:20;7.30;99.90
8715;DHT22;4394;51.208;8.904;2024-02-14T05:33:08;7.30;99.90
8715;DHT22;4394;51.208;8.904;2024-02-14T05:35:57;7.30;99.90
8715;DHT22;4394;51.208;8.904;2024-02-14T05:38:45;7.30;99.90
8715;DHT22;4394;51.208;8.904;2024-02-14T05:41:34;7.30;99.90
8715;DHT22;4394;51.208;8.904;2024-02-14T05:44:22;7.40;99.90
8715;DHT22;4394;51.208;8.904;2024-02-14T05:47:11;7.30;99.90
8715;DHT22;4394;51.208;8.904;2024-02-14T05:50:00;7.30;99.90
8715;DHT22;4394;51.208;8.904;2024-02-14T05:52:48;7.40;99.90
8715;DHT22;4394;51.208;8.904;2024-02-14T05:55:36;7.30;99.90
8715;DHT22;4394;51.208;8.904;2024-02-14T05:58:24;7.30;99.90
8715;DHT22;4394;51.208;8.904;2024-02-14T06:01:16;7.30;99.90
8715;DHT22;4394;51.208;8.904;2024-02-14T06:04:05;7.30;99.90
8715;DHT22;4394;51.208;8.904;2024-02-14T06:06:53;7.30;99.90
8715;DHT22;4394;51.208;8.904;2024-02-14T06:09:41;7.30;99.90
8715;DHT22;4394;51.208;8.904;2024-02-14T06:12:29;7.20;99.90
8715;DHT22;4394;51.208;8.904;2024-02-14T06:15:17;7.50;99.90
8715;DHT22;4394;51.208;8.904;2024-02-14T06:18:06;7.40;99.90
8715;DHT22;4394;51.208;8.904;2024-02-14T06:20:55;7.30;99.90
8715;DHT22;4394;51.208;8.904;2024-02-14T06:23:43;7.30;99.90
8715;DHT22;4394;51.208;8.904;2024-02-14T06:26:33;7.30;99.90
8715;DHT22;4394;51.208;8.904;2024-02-14T06:29:21;7.30;99.90
8715;DHT22;4394;51.208;8.904;2024-02-14T06:32:12;7.30;99.90
8715;DHT22;4394;51.208;8.904;2024-02-14T06:35:01;7.30;99.90
8715;DHT22;4394;51.208;8.904;2024-02-14T06:37:53;7.20;99.90
8715;DHT22;4394;51.208;8.904;2024-02-14T06:40:50;7.30;99.90
8715;DHT22;4394;51.208;8.904;2024-02-14T06:43:38;7.20;99.90
8715;DHT22;4394;51.208;8.904;2024-02-14T06:46:26;7.20;99.90
8715;DHT22;4394;51.208;8.904;2024-02-14T06:49:15;7.30;99.90
8715;DHT22;4394;51.208;8.904;2024-02-14T06:52:05;7.30;99.90
8715;DHT22;4394;51.208;8.904;2024-02-14T06:54:54;7.30;99.90
8715;DHT22;4394;51.208;8.904;2024-02-14T06:57:42;7.30;99.90
8715;DHT22;4394;51.208;8.904;2024-02-14T07:00:30;7.30;99.90
8715;DHT22;4394;51.208;8.904;2024-02-14T07:03:19;7.30;99.90
8715;DHT22;4394;51.208;8.904;2024-02-14T07:06:07;7.30;99.90
8715;DHT22;4394;51.208;8.904;2024-02-14T07:08:55;7.30;99.90
8715;DHT22;4394;51.208;8.904;2024-02-14T07:11:45;7.30;99.90
8715;DHT22;4394;51.208;8.904;2024-02-14T07:14:33;7.30;99.90
8715;DHT22;4394;51.208;8.904;2024-02-14T07:17:21;7.40;99.90
8715;DHT22;4394;51.208;8.904;2024-02-14T07:20:10;7.40;99.90
8715;DHT22;4394;51.208;8.904;2024-02-14T07:22:58;7.40;99.90
8715;DHT22;4394;51.208;8.904;2024-02-14T07:25:47;7.30;99.90
8715;DHT22;4394;51.208;8.904;2024-02-14T07:28:36;7.30;99.90
8715;DHT22;4394;51.208;8.904;2024-02-14T07:31:24;7.40;99.90
8715;DHT22;4394;51.208;8.904;2024-02-14T07:34:15;7.30;99.90
8715;DHT22;4394;51.208;8.904;2024-02-14T07:37:04;7.40;99.90
8715;DHT22;4394;51.208;8.904;2024-02-14T07:39:52;7.40;99.90
8715;DHT22;4394;51.208;8.904;2024-02-14T07:42:40;7.40;99.90
8715;DHT22;4394;51.208;8.904;2024-02-14T07:45:30;7.40;99.90
8715;DHT22;4394;51.208;8.904;2024-02-14T07:48:18;7.40;99.90
8715;DHT22;4394;51.208;8.904;2024-02-14T07:51:07;7.40;99.90
8715;DHT22;4394;51.208;8.904;2024-02-14T07:53:55;7.40;99.90
8715;DHT22;4394;51.208;8.904;2024-02-14T07:56:43;7.40;99.90
8715;DHT22;4394;51.208;8.904;2024-02-14T07:59:31;7.50;99.90
8715;DHT22;4394;51.208;8.904;2024-02-14T08:02:21;7.50;99.90
8715;DHT22;4394;51.208;8.904;2024-02-14T08:05:09;7.50;99.90
8715;DHT22;4394;51.208;8.904;2024-02-14T08:07:57;7.50;99.90
8715;DHT22;4394;51.208;8.904;2024-02-14T08:10:46;7.50;99.90
8715;DHT22;4394;51.208;8.904;2024-02-14T08:13:34;7.60;99.90
8715;DHT22;4394;51.208;8.904;2024-02-14T08:16:23;7.60;99.90
8715;DHT22;4394;51.208;8.904;2024-02-14T08:19:13;7.60;99.90
8715;DHT22;4394;51.208;8.904;2024-02-14T08:22:03;7.70;99.90
8715;DHT22;4394;51.208;8.904;2024-02-14T08:24:52;7.70;99.90
8715;DHT22;4394;51.208;8.904;2024-02-14T08:27:40;7.80;99.90
8715;DHT22;4394;51.208;8.904;2024-02-14T08:30:29;7.80;99.90
8715;DHT22;4394;51.208;8.904;2024-02-14T08:33:18;7.70;99.90
8715;DHT22;4394;51.208;8.904;2024-02-14T08:36:08;7.80;99.90
8715;DHT22;4394;51.208;8.904;2024-02-14T08:38:56;7.90;99.90
8715;DHT22;4394;51.208;8.904;2024-02-14T08:41:44;7.80;99.90
8715;DHT22;4394;51.208;8.904;2024-02-14T08:44:34;7.90;99.90
8715;DHT22;4394;51.208;8.904;2024-02-14T08:47:22;7.80;99.90
8715;DHT22;4394;51.208;8.904;2024-02-14T08:50:11;7.80;99.90
8715;DHT22;4394;51.208;8.904;2024-02-14T08:53:00;7.90;99.90
8715;DHT22;4394;51.208;8.904;2024-02-14T08:55:48;8.00;99.90
8715;DHT22;4394;51.208;8.904;2024-02-14T08:58:36;8.00;99.90
8715;DHT22;4394;51.208;8.904;2024-02-14T09:01:25;8.00;99.90
8715;DHT22;4394;51.208;8.904;2024-02-14T09:04:14;8.00;99.90
8715;DHT22;4394;51.208;8.904;2024-02-14T09:07:02;8.00;99.90
8715;DHT22;4394;51.208;8.904;2024-02-14T09:09:52;8.10;99.90
8715;DHT22;4394;51.208;8.904;2024-02-14T09:12:40;8.00;99.90
8715;DHT22;4394;51.208;8.904;2024-02-14T09:15:29;8.10;99.90
8715;DHT22;4394;51.208;8.904;2024-02-14T09:18:19;8.10;99.90
8715;DHT22;4394;51.208;8.904;2024-02-14T09:21:08;8.10;99.90
8715;DHT22;4394;51.208;8.904;2024-02-14T09:23:56;8.20;99.90
8715;DHT22;4394;51.208;8.904;2024-02-14T09:26:46;8.20;99.90
8715;DHT22;4394;51.208;8.904;2024-02-14T09:29:34;8.20;99.90
8715;DHT22;4394;51.208;8.904;2024-02-14T09:32:25;8.30;99.90
8715;DHT22;4394;51.208;8.904;2024-02-14T09:35:13;8.30;99.90
8715;DHT22;4394;51.208;8.904;2024-02-14T09:38:01;8.30;99.90
8715;DHT22;4394;51.208;8.904;2024-02-14T09:40:51;8.30;99.90
8715;DHT22;4394;51.208;8.904;2024-02-14T09:43:44;8.40;99.90
8715;DHT22;4394;51.208;8.904;2024-02-14T09:46:32;8.40;99.90
8715;DHT22;4394;51.208;8.904;2024-02-14T09:49:23;8.40;99.90
8715;DHT22;4394;51.208;8.904;2024-02-14T09:52:12;8.40;99.90
8715;DHT22;4394;51.208;8.904;2024-02-14T09:55:02;8.50;99.90
8715;DHT22;4394;51.208;8.904;2024-02-14T09:57:52;8.50;99.90
8715;DHT22;4394;51.208;8.904;2024-02-14T10:00:43;8.50;99.90
8715;DHT22;4394;51.208;8.904;2024-02-14T10:03:31;8.50;99.90
8715;DHT22;4394;51.208;8.904;2024-02-14T10:06:21;8.60;99.90
8715;DHT22;4394;51.208;8.904;2024-02-14T10:09:10;8.60;99.90
8715;DHT22;4394;51.208;8.904;2024-02-14T10:11:58;8.80;99.90
8715;DHT22;4394;51.208;8.904;2024-02-14T10:14:47;8.70;99.90
8715;DHT22;4394;51.208;8.904;2024-02-14T10:17:38;8.80;99.90
8715;DHT22;4394;51.208;8.904;2024-02-14T10:20:27;8.80;99.90
8715;DHT22;4394;51.208;8.904;2024-02-14T10:23:17;8.80;99.90
8715;DHT22;4394;51.208;8.904;2024-02-14T10:26:05;8.80;99.90
8715;DHT22;4394;51.208;8.904;2024-02-14T10:28:56;8.80;99.90
8715;DHT22;4394;51.208;8.904;2024-02-14T10:31:45;8.90;99.90
8715;DHT22;4394;51.208;8.904;2024-02-14T10:34:37;8.90;99.90
8715;DHT22;4394;51.208;8.904;2024-02-14T10:37:28;8.90;99.90
8715;DHT22;4394;51.208;8.904;2024-02-14T10:40:16;8.90;99.90
8715;DHT22;4394;51.208;8.904;2024-02-14T10:43:06;9.00;99.90
8715;DHT22;4394;51.208;8.904;2024-02-14T10:45:56;9.00;99.90
8715;DHT22;4394;51.208;8.904;2024-02-14T10:48:46;9.00;99.90
8715;DHT22;4394;51.208;8.904;2024-02-14T10:51:36;9.10;99.90
8715;DHT22;4394;51.208;8.904;2024-02-14T10:54:28;9.10;99.90
8715;DHT22;4394;51.208;8.904;2024-02-14T10:57:17;9.20;99.90
8715;DHT22;4394;51.208;8.904;2024-02-14T11:00:09;9.20;99.90
8715;DHT22;4394;51.208;8.904;2024-02-14T11:03:00;9.30;99.90
8715;DHT22;4394;51.208;8.904;2024-02-14T11:05:49;9.30;99.90
8715;DHT22;4394;51.208;8.904;2024-02-14T11:08:39;9.30;99.90
8715;DHT22;4394;51.208;8.904;2024-02-14T11:11:28;9.40;99.90
8715;DHT22;4394;51.208;8.904;2024-02-14T11:14:18;9.40;99.90
8715;DHT22;4394;51.208;8.904;2024-02-14T11:17:09;9.50;99.90
8715;DHT22;4394;51.208;8.904;2024-02-14T11:19:58;9.50;99.90
8715;DHT22;4394;51.208;8.904;2024-02-14T11:22:57;9.50;99.90
8715;DHT22;4394;51.208;8.904;2024-02-14T11:25:48;9.50;99.90
8715;DHT22;4394;51.208;8.904;2024-02-14T11:28:37;9.50;99.90
8715;DHT22;4394;51.208;8.904;2024-02-14T11:31:32;9.60;99.90
8715;DHT22;4394;51.208;8.904;2024-02-14T11:34:21;9.60;99.90
8715;DHT22;4394;51.208;8.904;2024-02-14T11:37:10;9.60;99.90
8715;DHT22;4394;51.208;8.904;2024-02-14T11:39:58;9.60;99.90
8715;DHT22;4394;51.208;8.904;2024-02-14T11:42:49;9.60;99.90
8715;DHT22;4394;51.208;8.904;2024-02-14T11:45:37;9.60;99.90
8715;DHT22;4394;51.208;8.904;2024-02-14T11:48:28;9.60;99.90
8715;DHT22;4394;51.208;8.904;2024-02-14T11:51:17;9.70;99.90
8715;DHT22;4394;51.208;8.904;2024-02-14T11:54:06;9.70;99.90
8715;DHT22;4394;51.208;8.904;2024-02-14T11:56:54;9.70;99.90
8715;DHT22;4394;51.208;8.904;2024-02-14T11:59:45;9.80;99.90
8715;DHT22;4394;51.208;8.904;2024-02-14T12:02:35;9.80;99.90
8715;DHT22;4394;51.208;8.904;2024-02-14T12:05:23;9.80;99.90
8715;DHT22;4394;51.208;8.904;2024-02-14T12:08:12;9.80;99.90
8715;DHT22;4394;51.208;8.904;2024-02-14T12:11:00;9.80;99.90
8715;DHT22;4394;51.208;8.904;2024-02-14T12:13:50;9.90;99.90
8715;DHT22;4394;51.208;8.904;2024-02-14T12:16:40;9.80;99.90
8715;DHT22;4394;51.208;8.904;2024-02-14T12:19:29;9.90;99.90
8715;DHT22;4394;51.208;8.904;2024-02-14T12:22:19;9.90;99.90
8715;DHT22;4394;51.208;8.904;2024-02-14T12:25:08;10.00;99.90
8715;DHT22;4394;51.208;8.904;2024-02-14T12:28:01;10.00;99.90
8715;DHT22;4394;51.208;8.904;2024-02-14T12:30:50;10.00;99.90
8715;DHT22;4394;51.208;8.904;2024-02-14T12:33:44;10.00;99.90
8715;DHT22;4394;51.208;8.904;2024-02-14T12:36:33;10.00;99.90
8715;DHT22;4394;51.208;8.904;2024-02-14T12:39:22;10.20;99.90
8715;DHT22;4394;51.208;8.904;2024-02-14T12:42:10;10.30;99.90
8715;DHT22;4394;51.208;8.904;2024-02-14T12:44:58;10.30;99.90
8715;DHT22;4394;51.208;8.904;2024-02-14T12:47:46;10.30;99.90
8715;DHT22;4394;51.208;8.904;2024-02-14T12:50:36;10.40;99.90
8715;DHT22;4394;51.208;8.904;2024-02-14T12:53:25;10.40;99.90
8715;DHT22;4394;51.208;8.904;2024-02-14T12:56:13;10.50;99.90
8715;DHT22;4394;51.208;8.904;2024-02-14T12:59:01;10.50;99.90
8715;DHT22;4394;51.208;8.904;2024-02-14T13:01:49;10.50;99.90
8715;DHT22;4394;51.208;8.904;2024-02-14T13:04:38;10.60;99.90
8715;DHT22;4394;51.208;8.904;2024-02-14T13:07:28;10.60;99.90
8715;DHT22;4394;51.208;8.904;2024-02-14T13:10:16;10.60;99.90
8715;DHT22;4394;51.208;8.904;2024-02-14T13:13:04;10.60;99.90
8715;DHT22;4394;51.208;8.904;2024-02-14T13:15:53;10.60;99.90
8715;DHT22;4394;51.208;8.904;2024-02-14T13:18:41;10.60;99.90
8715;DHT22;4394;51.208;8.904;2024-02-14T13:21:29;10.70;99.90
8715;DHT22;4394;51.208;8.904;2024-02-14T13:24:18;10.80;99.90
8715;DHT22;4394;51.208;8.904;2024-02-14T13:27:07;10.90;99.90
8715;DHT22;4394;51.208;8.904;2024-02-14T13:29:56;10.90;99.90
8715;DHT22;4394;51.208;8.904;2024-02-14T13:32:44;11.00;99.90
8715;DHT22;4394;51.208;8.904;2024-02-14T13:35:32;11.10;99.90
8715;DHT22;4394;51.208;8.904;2024-02-14T13:38:24;11.10;99.90
8715;DHT22;4394;51.208;8.904;2024-02-14T13:41:14;11.10;99.90
8715;DHT22;4394;51.208;8.904;2024-02-14T13:44:02;11.10;99.90
8715;DHT22;4394;51.208;8.904;2024-02-14T13:46:50;11.10;99.90
8715;DHT22;4394;51.208;8.904;2024-02-14T13:49:40;11.10;99.90
8715;DHT22;4394;51.208;8.904;2024-02-14T13:52:28;11.10;99.90
8715;DHT22;4394;51.208;8.904;2024-02-14T13:55:17;11.10;99.90
8715;DHT22;4394;51.208;8.904;2024-02-14T13:58:07;11.10;99.90
8715;DHT22;4394;51.208;8.904;2024-02-14T14:01:01;11.10;99.90
8715;DHT22;4394;51.208;8.904;2024-02-14T14:03:49;11.00;99.90
8715;DHT22;4394;51.208;8.904;2024-02-14T14:06:37;11.00;99.90
8715;DHT22;4394;51.208;8.904;2024-02-14T14:09:26;11.00;99.90
8715;DHT22;4394;51.208;8.904;2024-02-14T14:12:14;11.00;99.90
8715;DHT22;4394;51.208;8.904;2024-02-14T14:15:05;11.00;99.90
8715;DHT22;4394;51.208;8.904;2024-02-14T14:17:56;11.00;99.90
8715;DHT22;4394;51.208;8.904;2024-02-14T14:20:44;11.00;99.90
8715;DHT22;4394;51.208;8.904;2024-02-14T14:23:33;11.00;99.90
8715;DHT22;4394;51.208;8.904;2024-02-14T14:26:21;11.00;99.90
8715;DHT22;4394;51.208;8.904;2024-02-14T14:29:09;11.00;99.90
8715;DHT22;4394;51.208;8.904;2024-02-14T14:31:59;11.00;99.90
8715;DHT22;4394;51.208;8.904;2024-02-14T14:34:47;11.00;99.90
8715;DHT22;4394;51.208;8.904;2024-02-14T14:37:35;11.00;99.90
8715;DHT22;4394;51.208;8.904;2024-02-14T14:40:23;11.00;99.90
8715;DHT22;4394;51.208;8.904;2024-02-14T14:43:12;11.00;99.90
8715;DHT22;4394;51.208;8.904;2024-02-14T14:46:00;10.90;99.90
8715;DHT22;4394;51.208;8.904;2024-02-14T14:48:50;11.00;99.90
8715;DHT22;4394;51.208;8.904;2024-02-14T14:51:38;10.90;99.90
8715;DHT22;4394;51.208;8.904;2024-02-14T14:54:26;10.90;99.90
8715;DHT22;4394;51.208;8.904;2024-02-14T14:57:15;10.90;99.90
8715;DHT22;4394;51.208;8.904;2024-02-14T15:00:03;10.90;99.90
8715;DHT22;4394;51.208;8.904;2024-02-14T15:02:52;10.90;99.90
8715;DHT22;4394;51.208;8.904;2024-02-14T15:05:43;10.90;99.90
8715;DHT22;4394;51.208;8.904;2024-02-14T15:08:31;10.90;99.90
8715;DHT22;4394;51.208;8.904;2024-02-14T15:11:19;10.80;99.90
8715;DHT22;4394;51.208;8.904;2024-02-14T15:14:07;10.80;99.90
8715;DHT22;4394;51.208;8.904;2024-02-14T15:16:55;10.90;99.90
8715;DHT22;4394;51.208;8.904;2024-02-14T15:19:43;10.90;99.90
8715;DHT22;4394;51.208;8.904;2024-02-14T15:22:33;11.00;99.90
8715;DHT22;4394;51.208;8.904;2024-02-14T15:25:21;10.90;99.90
8715;DHT22;4394;51.208;8.904;2024-02-14T15:28:12;10.90;99.90
8715;DHT22;4394;51.208;8.904;2024-02-14T15:31:08;10.90;99.90
8715;DHT22;4394;51.208;8.904;2024-02-14T15:34:13;10.90;99.90
8715;DHT22;4394;51.208;8.904;2024-02-14T15:37:02;10.90;99.90
8715;DHT22;4394;51.208;8.904;2024-02-14T15:39:53;10.90;99.90
8715;DHT22;4394;51.208;8.904;2024-02-14T15:42:41;10.90;99.90
8715;DHT22;4394;51.208;8.904;2024-02-14T15:45:30;10.90;99.90
8715;DHT22;4394;51.208;8.904;2024-02-14T15:48:18;10.90;99.90
8715;DHT22;4394;51.208;8.904;2024-02-14T15:51:06;10.90;99.90
8715;DHT22;4394;51.208;8.904;2024-02-14T15:53:54;10.80;99.90
8715;DHT22;4394;51.208;8.904;2024-02-14T15:56:44;10.80;99.90
8715;DHT22;4394;51.208;8.904;2024-02-14T15:59:31;10.80;99.90
8715;DHT22;4394;51.208;8.904;2024-02-14T16:02:20;10.80;99.90
8715;DHT22;4394;51.208;8.904;2024-02-14T16:05:08;10.80;99.90
8715;DHT22;4394;51.208;8.904;2024-02-14T16:07:57;10.80;99.90
8715;DHT22;4394;51.208;8.904;2024-02-14T16:10:45;10.80;99.90
8715;DHT22;4394;51.208;8.904;2024-02-14T16:13:35;10.80;99.90
8715;DHT22;4394;51.208;8.904;2024-02-14T16:16:23;10.80;99.90
8715;DHT22;4394;51.208;8.904;2024-02-14T16:19:12;10.80;99.90
8715;DHT22;4394;51.208;8.904;2024-02-14T16:22:00;10.80;99.90
8715;DHT22;4394;51.208;8.904;2024-02-14T16:25:02;10.80;99.90
8715;DHT22;4394;51.208;8.904;2024-02-14T16:27:51;10.80;99.90
8715;DHT22;4394;51.208;8.904;2024-02-14T16:30:41;10.80;99.90
8715;DHT22;4394;51.208;8.904;2024-02-14T16:33:29;10.80;99.90
8715;DHT22;4394;51.208;8.904;2024-02-14T16:36:17;10.80;99.90
8715;DHT22;4394;51.208;8.904;2024-02-14T16:39:06;10.80;99.90
8715;DHT22;4394;51.208;8.904;2024-02-14T16:41:58;10.80;99.90
8715;DHT22;4394;51.208;8.904;2024-02-14T16:44:47;10.70;99.90
8715;DHT22;4394;51.208;8.904;2024-02-14T16:47:36;10.80;99.90
8715;DHT22;4394;51.208;8.904;2024-02-14T16:50:26;10.70;99.90
8715;DHT22;4394;51.208;8.904;2024-02-14T16:53:15;10.70;99.90
8715;DHT22;4394;51.208;8.904;2024-02-14T16:56:04;10.80;99.90
8715;DHT22;4394;51.208;8.904;2024-02-14T16:58:53;10.80;99.90
8715;DHT22;4394;51.208;8.904;2024-02-14T17:01:41;10.70;99.90
8715;DHT22;4394;51.208;8.904;2024-02-14T17:04:30;10.70;99.90
8715;DHT22;4394;51.208;8.904;2024-02-14T17:07:19;10.70;99.90
8715;DHT22;4394;51.208;8.904;2024-02-14T17:10:07;10.80;99.90
8715;DHT22;4394;51.208;8.904;2024-02-14T17:12:56;10.70;99.90
8715;DHT22;4394;51.208;8.904;2024-02-14T17:15:46;10.60;99.90
8715;DHT22;4394;51.208;8.904;2024-02-14T17:18:34;10.60;99.90
8715;DHT22;4394;51.208;8.904;2024-02-14T17:21:24;10.60;99.90
8715;DHT22;4394;51.208;8.904;2024-02-14T17:24:12;10.60;99.90
8715;DHT22;4394;51.208;8.904;2024-02-14T17:27:00;10.60;99.90
8715;DHT22;4394;51.208;8.904;2024-02-14T17:29:49;10.60;99.90
8715;DHT22;4394;51.208;8.904;2024-02-14T17:32:37;10.60;99.90
8715;DHT22;4394;51.208;8.904;2024-02-14T17:35:27;10.60;99.90
8715;DHT22;4394;51.208;8.904;2024-02-14T17:38:16;10.60;99.90
8715;DHT22;4394;51.208;8.904;2024-02-14T17:41:05;10.60;99.90
8715;DHT22;4394;51.208;8.904;2024-02-14T17:43:53;10.60;99.90
8715;DHT22;4394;51.208;8.904;2024-02-14T17:46:41;10.60;99.90
8715;DHT22;4394;51.208;8.904;2024-02-14T17:49:30;10.60;99.90
8715;DHT22;4394;51.208;8.904;2024-02-14T17:52:18;10.60;99.90
8715;DHT22;4394;51.208;8.904;2024-02-14T17:55:08;10.60;99.90
8715;DHT22;4394;51.208;8.904;2024-02-14T17:57:57;10.60;99.90
8715;DHT22;4394;51.208;8.904;2024-02-14T18:00:45;10.60;99.90
8715;DHT22;4394;51.208;8.904;2024-02-14T18:03:34;10.50;99.90
8715;DHT22;4394;51.208;8.904;2024-02-14T18:06:22;10.60;99.90
8715;DHT22;4394;51.208;8.904;2024-02-14T18:09:10;10.60;99.90
8715;DHT22;4394;51.208;8.904;2024-02-14T18:11:59;10.60;99.90
8715;DHT22;4394;51.208;8.904;2024-02-14T18:14:50;10.60;99.90
8715;DHT22;4394;51.208;8.904;2024-02-14T18:17:38;10.60;99.90
8715;DHT22;4394;51.208;8.904;2024-02-14T18:20:27;10.60;99.90
8715;DHT22;4394;51.208;8.904;2024-02-14T18:23:16;10.60;99.90
8715;DHT22;4394;51.208;8.904;2024-02-14T18:26:05;10.60;99.90
8715;DHT22;4394;51.208;8.904;2024-02-14T18:28:57;10.60;99.90
8715;DHT22;4394;51.208;8.904;2024-02-14T18:31:45;10.60;99.90
8715;DHT22;4394;51.208;8.904;2024-02-14T18:34:33;10.60;99.90